| time (UTC) | temp F | wind direction | speed knots | gust knots | rain 1hr in | rain 24hr in | rain mn in | humidity % | barometer mb |
| 20260906082946 | 70 | 358 | 0.0 | 0.0 | 0.00 | 0.00 | 0.00 | 99 | 1013.5 |
| 20260906082442 | 70 | 0 | 0.9 | 0.9 | 0.00 | 0.00 | 0.00 | 99 | 1013.6 |
| 20260906081937 | 70 | 344 | 0.0 | 0.0 | 0.00 | 0.00 | 0.00 | 99 | 1013.5 |
| 20260906081432 | 70 | 336 | 0.0 | 0.0 | 0.00 | 0.00 | 0.00 | 99 | 1013.5 |
| 20260906080929 | 70 | 331 | 0.0 | 0.0 | 0.00 | 0.00 | 0.00 | 99 | 1013.6 |
| 20260906080425 | 70 | 329 | 0.0 | 0.0 | 0.00 | 0.00 | 0.00 | 99 | 1013.9 |
| 20260906075925 | 70 | 334 | 0.0 | 0.0 | 0.00 | 0.00 | 0.00 | 99 | 1013.9 |
| 20260906075420 | 70 | 334 | 0.0 | 0.0 | 0.00 | 0.00 | 0.00 | 99 | 1013.9 |
| 20260906074915 | 70 | 333 | 0.0 | 0.0 | 0.00 | 0.00 | 0.00 | 99 | 1013.8 |
| 20260906074415 | 71 | 346 | 0.0 | 0.0 | 0.00 | 0.00 | 0.00 | 99 | 1013.7 |
| 20260906073914 | 71 | 343 | 0.0 | 0.0 | 0.00 | 0.00 | 0.00 | 99 | 1014.0 |
| 20260906073408 | 71 | 331 | 0.0 | 0.0 | 0.00 | 0.00 | 0.00 | 99 | 1014.0 |
| 20260906072905 | 71 | 342 | 0.0 | 0.0 | 0.00 | 0.00 | 0.00 | 99 | 1014.0 |
| 20260906072400 | 71 | 324 | 0.0 | 0.0 | 0.00 | 0.00 | 0.00 | 99 | 1014.0 |
| 20260906071856 | 71 | 335 | 0.0 | 0.0 | 0.00 | 0.00 | 0.00 | 99 | 1014.2 |
| 20260906071351 | 71 | 331 | 0.0 | 0.0 | 0.00 | 0.00 | 0.00 | 99 | 1014.2 |
| 20260906070847 | 71 | 332 | 0.0 | 0.0 | 0.00 | 0.00 | 0.00 | 99 | 1014.0 |
| 20260906070343 | 71 | 337 | 0.0 | 0.0 | 0.00 | 0.00 | 0.00 | 99 | 1013.9 |
| 20260906065838 | 71 | 348 | 0.0 | 0.0 | 0.00 | 0.00 | 0.00 | 99 | 1014.2 |
| 20260906065332 | 71 | 355 | 0.9 | 0.9 | 0.00 | 0.00 | 0.00 | 99 | 1013.9 |
| 20260906064829 | 71 | 337 | 0.0 | 0.0 | 0.00 | 0.00 | 0.00 | 99 | 1014.0 |
| 20260906064325 | 71 | 326 | 0.0 | 0.0 | 0.00 | 0.00 | 0.00 | 99 | 1014.2 |
| 20260906063824 | 71 | 329 | 0.0 | 0.0 | 0.00 | 0.00 | 0.00 | 99 | 1014.1 |
| 20260906063320 | 71 | 329 | 0.0 | 0.0 | 0.00 | 0.00 | 0.00 | 99 | 1013.9 |
| 20260906062815 | 71 | 341 | 0.0 | 0.0 | 0.00 | 0.00 | 0.00 | 99 | 1013.8 |
| 20260906062314 | 71 | 330 | 0.0 | 0.0 | 0.00 | 0.00 | 0.00 | 99 | 1014.0 |
| 20260906061810 | 71 | 340 | 0.0 | 0.0 | 0.00 | 0.00 | 0.00 | 99 | 1014.2 |
| 20260906061306 | 71 | 331 | 0.0 | 0.0 | 0.00 | 0.00 | 0.00 | 99 | 1014.1 |
| 20260906060801 | 71 | 333 | 0.0 | 0.0 | 0.00 | 0.00 | 0.00 | 99 | 1014.2 |
| 20260906060259 | 71 | 340 | 0.0 | 0.0 | 0.00 | 0.00 | 0.00 | 99 | 1014.3 |
| 20260906055754 | 71 | 338 | 0.0 | 0.0 | 0.00 | 0.00 | 0.00 | 99 | 1014.6 |
| 20260906055249 | 71 | 332 | 0.0 | 0.0 | 0.00 | 0.00 | 0.00 | 99 | 1014.4 |
| 20260906054744 | 71 | 331 | 0.0 | 0.0 | 0.00 | 0.00 | 0.00 | 99 | 1014.1 |
| 20260906054240 | 71 | 332 | 0.0 | 0.0 | 0.00 | 0.00 | 0.00 | 99 | 1014.3 |
| 20260906053736 | 71 | 327 | 0.0 | 0.0 | 0.00 | 0.00 | 0.00 | 99 | 1014.6 |
| 20260906053232 | 71 | 332 | 0.0 | 0.0 | 0.00 | 0.00 | 0.00 | 99 | 1014.5 |
| 20260906052727 | 71 | 332 | 0.0 | 0.0 | 0.00 | 0.00 | 0.00 | 99 | 1014.5 |
| 20260906052223 | 71 | 328 | 0.0 | 0.0 | 0.00 | 0.00 | 0.00 | 99 | 1014.5 |
| 20260906051720 | 72 | 329 | 0.0 | 0.0 | 0.00 | 0.00 | 0.00 | 99 | 1014.5 |
| 20260906051219 | 72 | 348 | 0.0 | 0.9 | 0.00 | 0.00 | 0.00 | 99 | 1014.5 |
| 20260906050714 | 72 | 347 | 0.0 | 0.0 | 0.00 | 0.00 | 0.00 | 99 | 1014.3 |
| 20260906050210 | 72 | 326 | 0.0 | 0.0 | 0.00 | 0.00 | 0.00 | 99 | 1014.5 |
| 20260906045708 | 72 | 348 | 0.0 | 0.9 | 0.00 | 0.00 | 0.00 | 99 | 1014.8 |
| 20260906045203 | 72 | 353 | 0.0 | 0.0 | 0.00 | 0.00 | 0.00 | 99 | 1015.1 |
| 20260906044659 | 72 | 1 | 0.9 | 0.9 | 0.00 | 0.00 | 0.00 | 99 | 1014.7 |
| 20260906044154 | 72 | 331 | 0.0 | 0.0 | 0.00 | 0.00 | 0.00 | 99 | 1014.7 |
| 20260906043650 | 72 | 333 | 0.0 | 0.0 | 0.00 | 0.00 | 0.00 | 99 | 1014.8 |
| 20260906043146 | 72 | 334 | 0.0 | 0.0 | 0.00 | 0.00 | 0.00 | 99 | 1014.6 |
| 20260906042645 | 72 | 337 | 0.0 | 0.0 | 0.00 | 0.00 | 0.00 | 99 | 1014.4 |
| 20260906042139 | 72 | 331 | 0.0 | 0.0 | 0.00 | 0.00 | 0.00 | 99 | 1014.2 |
| 20260906041635 | 73 | 339 | 0.0 | 0.0 | 0.00 | 0.00 | 0.00 | 99 | 1014.2 |
| 20260906041130 | 73 | 40 | 0.9 | 0.9 | 0.00 | 0.00 | 0.00 | 99 | 1014.6 |
| 20260906040625 | 73 | 332 | 0.0 | 0.0 | 0.00 | 0.00 | 0.00 | 99 | 1014.5 |
| 20260906040121 | 73 | 346 | 0.0 | 0.9 | 0.00 | 0.06 | 0.06 | 99 | 1014.3 |
| 20260906035616 | 73 | 335 | 0.0 | 0.0 | 0.00 | 0.06 | 0.06 | 99 | 1014.6 |
| 20260906035112 | 73 | 333 | 0.0 | 0.0 | 0.00 | 0.06 | 0.06 | 99 | 1014.6 |
| 20260906034611 | 73 | 332 | 0.0 | 0.0 | 0.00 | 0.06 | 0.06 | 99 | 1014.5 |
| 20260906034106 | 73 | 331 | 0.0 | 0.0 | 0.00 | 0.06 | 0.06 | 99 | 1014.6 |
| 20260906033602 | 73 | 330 | 0.0 | 0.0 | 0.00 | 0.06 | 0.06 | 98 | 1014.3 |
| 20260906033057 | 73 | 330 | 0.0 | 0.0 | 0.00 | 0.06 | 0.06 | 98 | 1014.6 |
| 20260906032553 | 73 | 329 | 0.0 | 0.0 | 0.00 | 0.06 | 0.06 | 98 | 1014.9 |
| 20260906032048 | 73 | 325 | 0.0 | 0.0 | 0.00 | 0.06 | 0.06 | 98 | 1014.8 |
| 20260906031543 | 74 | 358 | 0.9 | 0.9 | 0.00 | 0.06 | 0.06 | 98 | 1014.8 |
| 20260906031039 | 74 | 350 | 0.9 | 0.9 | 0.00 | 0.06 | 0.06 | 98 | 1014.8 |
| 20260906030538 | 74 | 353 | 0.9 | 0.9 | 0.00 | 0.06 | 0.06 | 98 | 1014.8 |
| 20260906030037 | 74 | 343 | 0.0 | 0.0 | 0.00 | 0.06 | 0.06 | 98 | 1014.7 |
| 20260906025532 | 74 | 333 | 0.0 | 0.0 | 0.00 | 0.06 | 0.06 | 97 | 1014.8 |
| 20260906025030 | 74 | 331 | 0.0 | 0.0 | 0.00 | 0.06 | 0.06 | 97 | 1014.7 |
| 20260906024526 | 74 | 345 | 0.0 | 0.0 | 0.00 | 0.06 | 0.06 | 97 | 1014.5 |
| 20260906024025 | 74 | 336 | 0.0 | 0.0 | 0.00 | 0.06 | 0.06 | 97 | 1014.8 |
| 20260906023522 | 74 | 336 | 0.0 | 0.0 | 0.00 | 0.06 | 0.06 | 97 | 1014.6 |
| 20260906023016 | 74 | 332 | 0.0 | 0.0 | 0.00 | 0.06 | 0.06 | 97 | 1014.9 |
| 20260906022512 | 74 | 333 | 0.0 | 0.0 | 0.00 | 0.06 | 0.06 | 97 | 1014.7 |
| 20260906022007 | 75 | 336 | 0.0 | 0.0 | 0.00 | 0.06 | 0.06 | 97 | 1014.8 |
| 20260906021502 | 75 | 339 | 0.0 | 0.9 | 0.00 | 0.06 | 0.06 | 97 | 1014.8 |
| 20260906020956 | 75 | 11 | 1.7 | 1.7 | 0.00 | 0.06 | 0.06 | 97 | 1014.7 |
| 20260906020450 | 75 | 353 | 0.9 | 0.9 | 0.00 | 0.06 | 0.06 | 97 | 1014.6 |
| 20260906015950 | 75 | 20 | 1.7 | 1.7 | 0.00 | 0.06 | 0.06 | 96 | 1014.5 |
| 20260906015449 | 75 | 352 | 0.9 | 0.9 | 0.00 | 0.06 | 0.06 | 96 | 1014.4 |
| 20260906014944 | 75 | 62 | 0.0 | 0.0 | 0.00 | 0.06 | 0.06 | 96 | 1014.4 |
| 20260906014444 | 75 | 357 | 0.0 | 0.0 | 0.00 | 0.06 | 0.06 | 96 | 1014.4 |
| 20260906013940 | 76 | 18 | 0.0 | 0.0 | 0.00 | 0.06 | 0.06 | 96 | 1014.5 |
| 20260906013430 | 76 | 338 | 0.0 | 0.0 | 0.00 | 0.06 | 0.06 | 95 | 1014.6 |
| 20260906012925 | 76 | 339 | 0.0 | 0.0 | 0.00 | 0.06 | 0.06 | 95 | 1014.5 |
| 20260906012425 | 76 | 332 | 0.0 | 0.0 | 0.00 | 0.06 | 0.06 | 95 | 1014.5 |
| 20260906011924 | 77 | 332 | 0.0 | 0.0 | 0.00 | 0.06 | 0.06 | 94 | 1014.3 |
| 20260906011420 | 77 | 330 | 0.0 | 0.0 | 0.00 | 0.06 | 0.06 | 94 | 1014.0 |
| 20260906010915 | 77 | 330 | 0.0 | 0.0 | 0.00 | 0.06 | 0.06 | 94 | 1014.3 |
| 20260906010411 | 77 | 329 | 0.0 | 0.0 | 0.00 | 0.06 | 0.06 | 93 | 1014.1 |
| 20260906005907 | 77 | 343 | 0.0 | 0.0 | 0.00 | 0.06 | 0.06 | 92 | 1014.1 |
| 20260906005406 | 77 | 338 | 0.0 | 0.0 | 0.00 | 0.06 | 0.06 | 92 | 1013.9 |
| 20260906004904 | 78 | 346 | 0.0 | 0.0 | 0.00 | 0.06 | 0.06 | 92 | 1013.8 |
| 20260906004359 | 78 | 1 | 0.9 | 0.9 | 0.00 | 0.06 | 0.06 | 92 | 1013.9 |
| 20260906003854 | 78 | 334 | 0.0 | 0.0 | 0.00 | 0.06 | 0.06 | 91 | 1014.2 |
| 20260906003350 | 78 | 331 | 0.0 | 0.0 | 0.00 | 0.06 | 0.06 | 91 | 1013.9 |
| 20260906002845 | 78 | 346 | 0.9 | 0.9 | 0.00 | 0.06 | 0.06 | 90 | 1013.8 |
| 20260906002344 | 79 | 12 | 0.9 | 1.7 | 0.00 | 0.06 | 0.06 | 89 | 1013.7 |
| 20260906001840 | 79 | 349 | 0.9 | 0.9 | 0.00 | 0.06 | 0.06 | 88 | 1013.9 |
| 20260906001336 | 80 | 347 | 0.0 | 0.9 | 0.00 | 0.06 | 0.06 | 86 | 1013.8 |
| 20260906000830 | 80 | 0 | 1.7 | 1.7 | 0.00 | 0.06 | 0.06 | 86 | 1013.8 |
| 20260906000326 | 80 | 345 | 0.9 | 0.9 | 0.00 | 0.06 | 0.06 | 84 | 1013.7 |
| 20260905235825 | 80 | 332 | 0.0 | 0.0 | 0.00 | 0.06 | 0.06 | 84 | 1013.6 |
| 20260905235320 | 80 | 332 | 0.0 | 0.0 | 0.00 | 0.06 | 0.06 | 84 | 1013.9 |
| 20260905234815 | 81 | 332 | 0.0 | 0.9 | 0.00 | 0.06 | 0.06 | 83 | 1013.7 |
| 20260905234310 | 81 | 332 | 0.0 | 0.0 | 0.00 | 0.06 | 0.06 | 83 | 1013.7 |
| 20260905233805 | 82 | 332 | 0.0 | 0.0 | 0.00 | 0.06 | 0.06 | 82 | 1013.6 |
| 20260905233300 | 82 | 332 | 0.0 | 0.0 | 0.00 | 0.06 | 0.06 | 81 | 1013.8 |
| 20260905232759 | 83 | 333 | 0.0 | 0.0 | 0.00 | 0.06 | 0.06 | 80 | 1013.8 |
| 20260905232255 | 83 | 331 | 0.0 | 0.0 | 0.00 | 0.06 | 0.06 | 78 | 1013.6 |
| 20260905231751 | 83 | 327 | 0.9 | 0.9 | 0.00 | 0.06 | 0.06 | 78 | 1013.7 |
| 20260905231246 | 83 | 331 | 0.0 | 0.9 | 0.00 | 0.06 | 0.06 | 77 | 1013.5 |
| 20260905230742 | 84 | 334 | 0.0 | 0.0 | 0.00 | 0.06 | 0.06 | 76 | 1013.5 |
| 20260905230240 | 84 | 353 | 0.0 | 0.0 | 0.00 | 0.06 | 0.06 | 77 | 1013.7 |
| 20260905225739 | 84 | 338 | 0.9 | 0.9 | 0.00 | 0.06 | 0.06 | 76 | 1013.8 |
| 20260905225235 | 84 | 331 | 0.0 | 0.9 | 0.00 | 0.06 | 0.06 | 76 | 1013.8 |
| 20260905224734 | 84 | 335 | 1.7 | 1.7 | 0.00 | 0.06 | 0.06 | 75 | 1014.0 |
| 20260905224230 | 84 | 318 | 0.9 | 0.9 | 0.00 | 0.06 | 0.06 | 75 | 1014.0 |
| 20260905223726 | 84 | 318 | 1.7 | 1.7 | 0.00 | 0.06 | 0.06 | 75 | 1014.1 |
| 20260905223222 | 85 | 330 | 1.7 | 1.7 | 0.00 | 0.06 | 0.06 | 75 | 1014.1 |
| 20260905222718 | 85 | 333 | 0.9 | 0.9 | 0.00 | 0.06 | 0.06 | 74 | 1014.1 |
| 20260905222217 | 85 | 327 | 0.0 | 0.0 | 0.00 | 0.06 | 0.06 | 74 | 1014.2 |
| 20260905221713 | 85 | 339 | 0.0 | 0.0 | 0.00 | 0.06 | 0.06 | 74 | 1014.3 |
| 20260905221210 | 85 | 322 | 0.9 | 0.9 | 0.00 | 0.06 | 0.06 | 73 | 1014.1 |
| 20260905220705 | 85 | 330 | 2.6 | 2.6 | 0.00 | 0.06 | 0.06 | 72 | 1014.2 |
| 20260905220201 | 85 | 320 | 2.6 | 4.3 | 0.00 | 0.06 | 0.06 | 72 | 1014.2 |
| 20260905215700 | 85 | 354 | 2.6 | 2.6 | 0.00 | 0.06 | 0.06 | 72 | 1014.4 |
| 20260905215156 | 85 | 343 | 2.6 | 2.6 | 0.00 | 0.06 | 0.06 | 71 | 1014.4 |
| 20260905214652 | 85 | 327 | 1.7 | 1.7 | 0.00 | 0.06 | 0.06 | 73 | 1014.2 |
| 20260905214147 | 86 | 320 | 1.7 | 1.7 | 0.00 | 0.06 | 0.06 | 71 | 1014.3 |
| 20260905213642 | 86 | 3 | 3.5 | 4.3 | 0.00 | 0.06 | 0.06 | 73 | 1014.0 |
| 20260905213137 | 86 | 323 | 1.7 | 2.6 | 0.00 | 0.06 | 0.06 | 72 | 1014.0 |
| 20260905212633 | 86 | 339 | 0.0 | 0.0 | 0.00 | 0.06 | 0.06 | 74 | 1014.1 |
| 20260905212132 | 86 | 331 | 0.9 | 0.9 | 0.00 | 0.06 | 0.06 | 75 | 1014.0 |
| 20260905211627 | 85 | 336 | 0.0 | 0.0 | 0.00 | 0.06 | 0.06 | 74 | 1014.0 |
| 20260905211122 | 85 | 353 | 2.6 | 2.6 | 0.00 | 0.06 | 0.06 | 75 | 1013.8 |
| 20260905210619 | 86 | 340 | 4.3 | 4.3 | 0.00 | 0.06 | 0.06 | 75 | 1013.7 |
| 20260905210113 | 86 | 336 | 0.0 | 0.9 | 0.00 | 0.06 | 0.06 | 75 | 1013.6 |
| 20260905205613 | 85 | 333 | 2.6 | 2.6 | 0.00 | 0.06 | 0.06 | 75 | 1013.8 |
| 20260905205113 | 86 | 350 | 3.5 | 6.1 | 0.00 | 0.06 | 0.06 | 75 | 1013.9 |
| 20260905204612 | 86 | 322 | 0.9 | 0.9 | 0.00 | 0.06 | 0.06 | 74 | 1014.1 |
| 20260905204108 | 86 | 324 | 2.6 | 2.6 | 0.00 | 0.06 | 0.06 | 74 | 1013.9 |
| 20260905203602 | 86 | 286 | 2.6 | 2.6 | 0.00 | 0.06 | 0.06 | 73 | 1013.9 |
| 20260905203057 | 86 | 341 | 3.5 | 5.2 | 0.00 | 0.06 | 0.06 | 74 | 1014.0 |
| 20260905202553 | 86 | 339 | 1.7 | 1.7 | 0.00 | 0.06 | 0.06 | 73 | 1014.0 |
| 20260905202048 | 87 | 327 | 1.7 | 1.7 | 0.00 | 0.06 | 0.06 | 70 | 1013.9 |
| 20260905201543 | 86 | 308 | 0.9 | 0.9 | 0.00 | 0.06 | 0.06 | 73 | 1013.9 |
| 20260905201043 | 86 | 310 | 1.7 | 1.7 | 0.00 | 0.06 | 0.06 | 73 | 1014.0 |
| 20260905200538 | 85 | 2 | 4.3 | 5.2 | 0.00 | 0.06 | 0.06 | 74 | 1014.2 |
| 20260905200038 | 87 | 317 | 0.9 | 1.7 | 0.00 | 0.06 | 0.06 | 72 | 1014.1 |
| 20260905195532 | 87 | 311 | 0.9 | 1.7 | 0.00 | 0.06 | 0.06 | 71 | 1014.3 |
| 20260905195028 | 86 | 311 | 1.7 | 1.7 | 0.00 | 0.06 | 0.06 | 73 | 1014.3 |
| 20260905194527 | 86 | 359 | 1.7 | 2.6 | 0.00 | 0.06 | 0.06 | 73 | 1014.3 |
| 20260905194021 | 85 | 336 | 0.0 | 0.0 | 0.00 | 0.06 | 0.06 | 72 | 1014.6 |
| 20260905193516 | 84 | 319 | 0.9 | 0.9 | 0.00 | 0.06 | 0.06 | 73 | 1014.4 |
| 20260905193011 | 84 | 314 | 0.9 | 0.9 | 0.00 | 0.06 | 0.06 | 71 | 1014.7 |
| 20260905192507 | 83 | 332 | 0.9 | 0.9 | 0.00 | 0.06 | 0.06 | 76 | 1014.7 |
| 20260905192003 | 84 | 295 | 2.6 | 4.3 | 0.00 | 0.06 | 0.06 | 73 | 1014.7 |
| 20260905191502 | 84 | 303 | 0.9 | 0.9 | 0.00 | 0.06 | 0.06 | 74 | 1014.5 |
| 20260905191001 | 84 | 317 | 0.0 | 0.0 | 0.00 | 0.06 | 0.06 | 75 | 1014.8 |
| 20260905190458 | 83 | 326 | 0.0 | 0.0 | 0.00 | 0.06 | 0.06 | 77 | 1015.0 |
| 20260905185957 | 81 | 322 | 0.0 | 0.0 | 0.00 | 0.06 | 0.06 | 77 | 1015.1 |
| 20260905185452 | 81 | 32 | 0.9 | 1.7 | 0.00 | 0.06 | 0.06 | 78 | 1015.1 |
| 20260905184951 | 80 | 352 | 0.9 | 1.7 | 0.00 | 0.06 | 0.06 | 79 | 1015.3 |
| 20260905184447 | 81 | 80 | 2.6 | 4.3 | 0.00 | 0.06 | 0.06 | 79 | 1015.6 |
| 20260905183945 | 80 | 14 | 0.9 | 0.9 | 0.00 | 0.06 | 0.06 | 81 | 1015.7 |
| 20260905183445 | 82 | 332 | 0.0 | 0.9 | 0.00 | 0.06 | 0.06 | 80 | 1015.8 |
| 20260905182940 | 80 | 324 | 0.0 | 0.0 | 0.00 | 0.06 | 0.06 | 79 | 1016.0 |
| 20260905182439 | 80 | 106 | 1.7 | 2.6 | 0.00 | 0.06 | 0.06 | 82 | 1016.2 |
| 20260905181935 | 79 | 334 | 0.0 | 0.9 | 0.00 | 0.06 | 0.06 | 84 | 1016.5 |
| 20260905181429 | 78 | 240 | 1.7 | 1.7 | 0.00 | 0.06 | 0.06 | 86 | 1016.6 |
| 20260905180928 | 78 | 351 | 0.0 | 0.0 | 0.00 | 0.06 | 0.06 | 86 | 1016.5 |
| 20260905180423 | 77 | 321 | 0.0 | 0.0 | 0.00 | 0.06 | 0.06 | 88 | 1016.5 |
| 20260905175918 | 77 | 167 | 4.3 | 5.2 | 0.00 | 0.06 | 0.06 | 89 | 1016.6 |
| 20260905175418 | 75 | 354 | 0.9 | 1.7 | 0.00 | 0.06 | 0.06 | 91 | 1016.8 |
| 20260905174913 | 74 | 327 | 0.0 | 0.0 | 0.00 | 0.06 | 0.06 | 96 | 1017.1 |
| 20260905174408 | 73 | 10 | 0.9 | 1.7 | 0.00 | 0.06 | 0.06 | 97 | 1017.3 |
| 20260905173904 | 73 | 342 | 0.0 | 0.0 | 0.00 | 0.06 | 0.06 | 98 | 1017.5 |
| 20260905173400 | 72 | 39 | 0.0 | 0.0 | 0.00 | 0.06 | 0.06 | 98 | 1017.5 |
| 20260905172855 | 72 | 334 | 0.0 | 0.0 | 0.00 | 0.06 | 0.06 | 99 | 1017.8 |
| 20260905172353 | 72 | 330 | 0.0 | 0.0 | 0.00 | 0.06 | 0.06 | 99 | 1017.8 |
| 20260905171849 | 71 | 336 | 0.0 | 0.0 | 0.00 | 0.06 | 0.06 | 98 | 1017.6 |
| 20260905171346 | 72 | 331 | 0.0 | 0.0 | 0.00 | 0.06 | 0.06 | 99 | 1017.4 |
| 20260905170842 | 71 | 335 | 0.0 | 0.0 | 0.00 | 0.06 | 0.06 | 98 | 1017.8 |
| 20260905170338 | 71 | 50 | 1.7 | 2.6 | 0.00 | 0.06 | 0.06 | 98 | 1018.0 |
| 20260905165837 | 71 | 327 | 0.0 | 0.0 | 0.00 | 0.06 | 0.06 | 98 | 1017.5 |
| 20260905165332 | 71 | 333 | 0.0 | 0.9 | 0.00 | 0.06 | 0.06 | 98 | 1017.3 |
| 20260905164826 | 71 | 9 | 0.9 | 0.9 | 0.00 | 0.06 | 0.06 | 98 | 1017.0 |
| 20260905164321 | 71 | 332 | 0.0 | 0.0 | 0.00 | 0.06 | 0.06 | 98 | 1017.1 |
| 20260905163817 | 71 | 331 | 0.0 | 0.0 | 0.00 | 0.06 | 0.06 | 98 | 1017.7 |
| 20260905163313 | 71 | 161 | 1.7 | 1.7 | 0.00 | 0.06 | 0.06 | 98 | 1017.8 |
| 20260905162809 | 71 | 328 | 0.0 | 0.0 | 0.00 | 0.06 | 0.06 | 98 | 1017.5 |
| 20260905162308 | 71 | 331 | 0.9 | 0.9 | 0.00 | 0.06 | 0.06 | 99 | 1017.7 |
| 20260905161803 | 72 | 329 | 0.0 | 0.9 | 0.00 | 0.06 | 0.06 | 98 | 1017.5 |
| 20260905161301 | 72 | 335 | 1.7 | 1.7 | 0.00 | 0.06 | 0.06 | 97 | 1018.3 |
| 20260905160755 | 72 | 328 | 0.0 | 0.0 | 0.00 | 0.06 | 0.06 | 96 | 1018.2 |
| 20260905160255 | 73 | 4 | 0.9 | 1.7 | 0.00 | 0.06 | 0.06 | 96 | 1018.2 |
| 20260905155750 | 74 | 34 | 0.9 | 2.6 | 0.07 | 0.06 | 0.06 | 95 | 1017.6 |
| 20260905155248 | 77 | 103 | 4.3 | 6.1 | 0.31 | 0.06 | 0.06 | 93 | 1017.7 |
| 20260905154743 | 79 | 335 | 0.9 | 0.9 | 0.24 | 0.05 | 0.05 | 90 | 1017.7 |
| 20260905154239 | 79 | 344 | 0.9 | 0.9 | 0.00 | 0.01 | 0.01 | 88 | 1017.9 |
| 20260905153735 | 80 | 329 | 0.9 | 1.7 | 0.00 | 0.01 | 0.01 | 88 | 1018.0 |
| 20260905153230 | 80 | 290 | 6.1 | 7.0 | 0.00 | 0.01 | 0.01 | 88 | 1017.9 |
| 20260905152724 | 81 | 333 | 0.0 | 0.0 | 0.00 | 0.01 | 0.01 | 83 | 1017.3 |
| 20260905152219 | 82 | 333 | 0.0 | 0.0 | 0.00 | 0.01 | 0.01 | 84 | 1017.0 |
| 20260905151719 | 82 | 330 | 0.0 | 0.0 | 0.00 | 0.01 | 0.01 | 82 | 1017.0 |
| 20260905151215 | 83 | 332 | 0.0 | 0.0 | 0.00 | 0.01 | 0.01 | 82 | 1017.0 |
| 20260905150710 | 84 | 350 | 0.0 | 0.0 | 0.00 | 0.01 | 0.01 | 80 | 1017.1 |
| 20260905150209 | 84 | 333 | 0.9 | 0.9 | 0.00 | 0.01 | 0.01 | 80 | 1016.8 |
| 20260905145706 | 83 | 337 | 0.0 | 0.0 | 0.00 | 0.01 | 0.01 | 81 | 1016.8 |
| 20260905145201 | 82 | 331 | 0.0 | 0.0 | 0.00 | 0.01 | 0.01 | 84 | 1016.8 |
| 20260905144700 | 82 | 334 | 1.7 | 1.7 | 0.00 | 0.01 | 0.01 | 83 | 1016.7 |
| 20260905144155 | 82 | 349 | 0.0 | 0.9 | 0.00 | 0.01 | 0.01 | 83 | 1016.7 |
| 20260905143654 | 82 | 335 | 0.9 | 1.7 | 0.00 | 0.01 | 0.01 | 83 | 1016.5 |
| 20260905143149 | 82 | 178 | 2.6 | 2.6 | 0.00 | 0.01 | 0.01 | 83 | 1016.3 |
| 20260905142647 | 82 | 311 | 0.9 | 1.7 | 0.00 | 0.01 | 0.01 | 83 | 1016.5 |
| 20260905142147 | 82 | 337 | 0.9 | 1.7 | 0.00 | 0.01 | 0.01 | 84 | 1016.4 |
| 20260905141642 | 81 | 287 | 0.9 | 0.9 | 0.00 | 0.01 | 0.01 | 84 | 1016.6 |
| 20260905141139 | 81 | 328 | 0.0 | 0.0 | 0.00 | 0.01 | 0.01 | 85 | 1017.2 |
| 20260905140634 | 80 | 328 | 1.7 | 1.7 | 0.00 | 0.01 | 0.01 | 87 | 1016.8 |
| 20260905140133 | 79 | 43 | 1.7 | 1.7 | 0.00 | 0.01 | 0.01 | 88 | 1016.8 |
| 20260905135628 | 80 | 27 | 0.9 | 0.9 | 0.00 | 0.01 | 0.01 | 88 | 1016.8 |
| 20260905135123 | 80 | 44 | 0.9 | 0.9 | 0.00 | 0.01 | 0.01 | 88 | 1016.9 |
| 20260905134613 | 80 | 20 | 1.7 | 1.7 | 0.00 | 0.01 | 0.01 | 87 | 1017.1 |
| 20260905134111 | 79 | 341 | 0.0 | 0.0 | 0.00 | 0.01 | 0.01 | 87 | 1016.9 |
| 20260905133607 | 79 | 19 | 0.9 | 0.9 | 0.00 | 0.01 | 0.01 | 87 | 1017.1 |
| 20260905133107 | 78 | 342 | 0.0 | 0.9 | 0.00 | 0.01 | 0.01 | 89 | 1016.8 |
| 20260905132606 | 78 | 333 | 0.0 | 0.9 | 0.00 | 0.01 | 0.01 | 89 | 1017.0 |
| 20260905132101 | 78 | 353 | 0.0 | 0.9 | 0.00 | 0.01 | 0.01 | 89 | 1016.9 |
| 20260905131556 | 77 | 344 | 0.0 | 0.9 | 0.00 | 0.01 | 0.01 | 91 | 1016.8 |
| 20260905131052 | 77 | 337 | 0.0 | 0.0 | 0.00 | 0.01 | 0.01 | 90 | 1017.0 |
| 20260905130550 | 76 | 350 | 0.9 | 0.9 | 0.00 | 0.01 | 0.01 | 91 | 1016.8 |
| 20260905130046 | 76 | 202 | 0.9 | 1.7 | 0.00 | 0.01 | 0.01 | 92 | 1017.2 |
| 20260905125545 | 75 | 19 | 0.0 | 0.9 | 0.00 | 0.01 | 0.01 | 93 | 1017.2 |
| 20260905125041 | 74 | 8 | 0.9 | 1.7 | 0.00 | 0.01 | 0.01 | 94 | 1017.1 |
| 20260905124537 | 74 | 22 | 0.9 | 1.7 | 0.00 | 0.01 | 0.01 | 94 | 1017.0 |
| 20260905124033 | 73 | 350 | 0.0 | 0.9 | 0.00 | 0.01 | 0.01 | 96 | 1017.3 |
| 20260905123528 | 73 | 21 | 1.7 | 1.7 | 0.05 | 0.01 | 0.01 | 96 | 1017.2 |
| 20260905123025 | 73 | 1 | 0.0 | 0.0 | 0.05 | 0.01 | 0.01 | 96 | 1017.2 |
| 20260905122519 | 72 | 6 | 0.9 | 0.9 | 0.00 | 0.00 | 0.00 | 97 | 1017.2 |
| 20260905122015 | 72 | 34 | 0.9 | 0.9 | 0.00 | 0.00 | 0.00 | 98 | 1017.0 |
| 20260905121514 | 71 | 61 | 1.7 | 1.7 | 0.00 | 0.00 | 0.00 | 98 | 1017.0 |
| 20260905121009 | 71 | 353 | 0.0 | 0.0 | 0.00 | 0.00 | 0.00 | 99 | 1016.9 |
| 20260905120509 | 71 | 345 | 0.0 | 0.0 | 0.00 | 0.00 | 0.00 | 99 | 1016.8 |
| 20260905120004 | 71 | 346 | 0.0 | 0.0 | 0.00 | 0.00 | 0.00 | 99 | 1016.8 |
| 20260905115503 | 70 | 338 | 0.0 | 0.0 | 0.00 | 0.00 | 0.00 | 99 | 1016.8 |
| 20260905114958 | 70 | 332 | 0.0 | 0.0 | 0.00 | 0.00 | 0.00 | 99 | 1016.8 |
| 20260905114458 | 69 | 345 | 0.0 | 0.0 | 0.00 | 0.00 | 0.00 | 99 | 1016.7 |
| 20260905113956 | 69 | 332 | 0.0 | 0.0 | 0.00 | 0.00 | 0.00 | 99 | 1016.7 |
| 20260905113452 | 69 | 331 | 0.0 | 0.0 | 0.00 | 0.00 | 0.00 | 99 | 1016.4 |
| 20260905112947 | 69 | 331 | 0.0 | 0.0 | 0.00 | 0.00 | 0.00 | 99 | 1016.7 |
| 20260905112442 | 69 | 331 | 0.0 | 0.0 | 0.00 | 0.00 | 0.00 | 99 | 1016.6 |
| 20260905111937 | 69 | 331 | 0.0 | 0.0 | 0.00 | 0.00 | 0.00 | 99 | 1016.4 |
| 20260905111431 | 69 | 331 | 0.0 | 0.0 | 0.00 | 0.00 | 0.00 | 99 | 1016.3 |
| 20260905110926 | 69 | 331 | 0.0 | 0.0 | 0.00 | 0.00 | 0.00 | 99 | 1016.3 |
| 20260905110425 | 69 | 330 | 0.0 | 0.0 | 0.00 | 0.00 | 0.00 | 99 | 1016.4 |
| 20260905105920 | 69 | 330 | 0.0 | 0.0 | 0.00 | 0.00 | 0.00 | 99 | 1016.2 |
| 20260905105420 | 69 | 333 | 0.0 | 0.0 | 0.00 | 0.00 | 0.00 | 99 | 1016.3 |
| 20260905104919 | 69 | 331 | 0.0 | 0.0 | 0.00 | 0.00 | 0.00 | 99 | 1016.2 |
| 20260905104416 | 69 | 338 | 0.0 | 0.0 | 0.00 | 0.00 | 0.00 | 99 | 1016.1 |
| 20260905103910 | 69 | 332 | 0.0 | 0.0 | 0.00 | 0.00 | 0.00 | 99 | 1016.2 |
| 20260905103406 | 69 | 337 | 0.0 | 0.0 | 0.00 | 0.00 | 0.00 | 99 | 1016.0 |
| 20260905102902 | 69 | 335 | 0.0 | 0.0 | 0.00 | 0.00 | 0.00 | 99 | 1016.1 |
| 20260905102358 | 69 | 340 | 0.0 | 0.0 | 0.00 | 0.00 | 0.00 | 99 | 1015.9 |
| 20260905101858 | 69 | 315 | 0.0 | 0.0 | 0.00 | 0.00 | 0.00 | 99 | 1016.1 |
| 20260905101351 | 69 | 1 | 0.0 | 0.0 | 0.00 | 0.00 | 0.00 | 99 | 1016.2 |
| 20260905100851 | 69 | 332 | 0.0 | 0.0 | 0.00 | 0.00 | 0.00 | 99 | 1016.0 |
| 20260905100347 | 69 | 349 | 0.0 | 0.0 | 0.00 | 0.00 | 0.00 | 99 | 1016.0 |
| 20260905095846 | 69 | 333 | 0.0 | 0.0 | 0.00 | 0.00 | 0.00 | 99 | 1015.9 |
| 20260905095340 | 69 | 325 | 0.0 | 0.0 | 0.00 | 0.00 | 0.00 | 99 | 1015.8 |
| 20260905094835 | 70 | 334 | 0.0 | 0.0 | 0.00 | 0.00 | 0.00 | 99 | 1015.9 |
| 20260905094331 | 70 | 335 | 0.0 | 0.0 | 0.00 | 0.00 | 0.00 | 99 | 1016.0 |
| 20260905093829 | 69 | 331 | 0.0 | 0.0 | 0.00 | 0.00 | 0.00 | 99 | 1016.0 |
| 20260905093325 | 69 | 334 | 0.0 | 0.0 | 0.00 | 0.00 | 0.00 | 99 | 1015.9 |
| 20260905092821 | 70 | 333 | 0.0 | 0.0 | 0.00 | 0.00 | 0.00 | 99 | 1016.1 |
| 20260905092316 | 70 | 342 | 0.0 | 0.0 | 0.00 | 0.00 | 0.00 | 99 | 1015.8 |
| 20260905091811 | 70 | 339 | 0.0 | 0.0 | 0.00 | 0.00 | 0.00 | 99 | 1015.4 |
| 20260905091311 | 70 | 2 | 0.0 | 0.0 | 0.00 | 0.00 | 0.00 | 99 | 1015.7 |
| 20260905090809 | 70 | 33 | 0.0 | 0.0 | 0.00 | 0.00 | 0.00 | 99 | 1015.7 |
| 20260905090305 | 70 | 353 | 0.0 | 0.0 | 0.00 | 0.00 | 0.00 | 99 | 1015.8 |
| 20260905085805 | 70 | 330 | 0.0 | 0.0 | 0.00 | 0.00 | 0.00 | 99 | 1015.4 |
| 20260905085306 | 70 | 330 | 0.0 | 0.0 | 0.00 | 0.00 | 0.00 | 99 | 1015.6 |
| 20260905084800 | 70 | 337 | 0.0 | 0.0 | 0.00 | 0.00 | 0.00 | 99 | 1015.8 |
| 20260905084259 | 70 | 351 | 0.0 | 0.0 | 0.00 | 0.00 | 0.00 | 99 | 1015.7 |
| 20260905083754 | 70 | 338 | 0.0 | 0.0 | 0.00 | 0.00 | 0.00 | 99 | 1015.7 |
| 20260905083250 | 70 | 330 | 0.0 | 0.0 | 0.00 | 0.00 | 0.00 | 99 | 1015.6 |